createdAt,value
2018-01-28T00:00:10.129Z,15.17
2018-01-28T00:02:37.649Z,14.40
2018-01-28T00:05:05.183Z,14.40
2018-01-28T00:07:32.693Z,13.63
2018-01-28T00:10:00.226Z,14.03
2018-01-28T00:12:27.758Z,13.63
2018-01-28T00:14:55.302Z,13.23
2018-01-28T00:17:22.836Z,13.20
2018-01-28T00:19:50.390Z,13.10
2018-01-28T00:22:17.991Z,13.50
2018-01-28T00:24:45.520Z,12.93
2018-01-28T00:27:13.043Z,12.90
2018-01-28T00:29:40.569Z,12.70
2018-01-28T00:32:08.104Z,12.87
2018-01-28T00:34:35.629Z,12.33
2018-01-28T00:37:03.262Z,11.93
2018-01-28T00:39:30.777Z,12.20
2018-01-28T00:41:58.376Z,11.97
2018-01-28T00:44:25.904Z,12.50
2018-01-28T00:46:53.428Z,12.33
2018-01-28T00:49:21.054Z,12.13
2018-01-28T00:51:48.575Z,11.13
2018-01-28T00:54:16.108Z,11.77
2018-01-28T00:56:43.630Z,11.30
2018-01-28T00:59:11.197Z,10.33
2018-01-28T01:01:38.718Z,10.80
2018-01-28T01:04:06.245Z,10.87
2018-01-28T01:06:33.878Z,11.00
2018-01-28T01:09:01.449Z,10.47
2018-01-28T01:11:28.981Z,11.37
2018-01-28T01:13:56.515Z,11.07
2018-01-28T01:16:24.077Z,11.27
2018-01-28T01:18:52.506Z,10.00
2018-01-28T01:21:20.037Z,10.70
2018-01-28T01:23:47.625Z,9.80
2018-01-28T01:26:15.269Z,11.10
2018-01-28T01:28:42.804Z,10.40
2018-01-28T01:31:10.333Z,10.60
2018-01-28T01:33:37.892Z,10.13
2018-01-28T01:36:05.412Z,10.03
2018-01-28T01:38:32.937Z,10.37
2018-01-28T01:41:00.502Z,9.77
2018-01-28T01:43:28.029Z,9.93
2018-01-28T01:45:55.536Z,9.30
2018-01-28T01:48:23.112Z,9.93
2018-01-28T01:50:50.670Z,9.80
2018-01-28T01:53:18.249Z,9.90
2018-01-28T01:55:45.765Z,9.23
2018-01-28T01:58:13.278Z,9.50
2018-01-28T02:00:40.804Z,10.03
2018-01-28T02:03:08.316Z,9.47
2018-01-28T02:05:35.836Z,8.87
2018-01-28T02:08:03.498Z,8.87
2018-01-28T02:10:31.026Z,9.07
2018-01-28T02:12:58.541Z,8.80
2018-01-28T02:15:26.138Z,9.03
2018-01-28T02:17:53.681Z,9.70
2018-01-28T02:20:21.196Z,8.93
2018-01-28T02:22:48.722Z,9.53
2018-01-28T02:25:16.306Z,9.67
2018-01-28T02:27:43.834Z,8.60
2018-01-28T02:30:11.364Z,8.67
2018-01-28T02:32:38.991Z,8.30
2018-01-28T03:12:01.897Z,6.93
2018-01-28T03:14:29.424Z,7.87
2018-01-28T03:16:57.017Z,7.37
2018-01-28T03:19:24.530Z,7.23
2018-01-28T03:21:52.120Z,7.20
2018-01-28T03:24:19.629Z,7.07
2018-01-28T03:26:47.169Z,7.30
2018-01-28T03:29:14.681Z,7.77
2018-01-28T03:31:42.244Z,7.47
2018-01-28T03:34:09.765Z,7.40
2018-01-28T03:36:37.299Z,7.73
2018-01-28T03:39:04.827Z,8.07
2018-01-28T03:41:32.413Z,7.40
2018-01-28T03:43:59.937Z,7.83
2018-01-28T03:46:27.454Z,6.70
2018-01-28T03:48:54.984Z,7.00
2018-01-28T03:51:22.514Z,7.53
2018-01-28T03:53:50.080Z,7.27
2018-01-28T03:56:17.594Z,7.10
2018-01-28T03:58:45.117Z,7.57
2018-01-28T04:01:12.636Z,7.70
2018-01-28T04:03:40.240Z,8.30
2018-01-28T04:06:07.803Z,7.73
2018-01-28T04:08:35.323Z,7.70
2018-01-28T04:11:02.855Z,7.40
2018-01-28T04:13:30.483Z,7.30
2018-01-28T04:15:58.008Z,7.60
2018-01-28T04:18:25.604Z,7.47
2018-01-28T04:20:53.129Z,7.80
2018-01-28T04:23:20.652Z,7.20
2018-01-28T04:25:48.170Z,7.60
2018-01-28T04:28:15.680Z,7.77
2018-01-28T04:30:43.197Z,7.07
2018-01-28T04:33:10.742Z,7.60
2018-01-28T04:35:38.278Z,6.13
2018-01-28T04:38:05.830Z,7.47
2018-01-28T04:40:33.361Z,7.20
2018-01-28T04:43:01.103Z,6.80
2018-01-28T04:45:28.632Z,7.27
2018-01-28T04:47:56.154Z,7.13
2018-01-28T04:50:23.680Z,7.00
2018-01-28T04:52:51.203Z,7.50
2018-01-28T04:55:18.788Z,7.83
2018-01-28T04:57:46.312Z,7.20
2018-01-28T05:00:13.829Z,7.60
2018-01-28T05:02:41.340Z,7.33
2018-01-28T05:05:08.858Z,7.87
2018-01-28T05:07:36.370Z,7.83
2018-01-28T05:10:03.894Z,7.57
2018-01-28T05:12:31.416Z,7.70
2018-01-28T05:14:58.942Z,8.20
2018-01-28T05:17:26.535Z,8.07
2018-01-28T05:19:54.054Z,7.87
2018-01-28T05:22:21.573Z,7.63
2018-01-28T05:24:49.132Z,8.00
2018-01-28T05:27:16.653Z,7.73
2018-01-28T05:29:44.231Z,7.80
2018-01-28T05:32:11.745Z,7.77
2018-01-28T05:34:39.260Z,7.90
2018-01-28T05:37:06.836Z,8.07
2018-01-28T05:39:34.364Z,8.03
2018-01-28T05:42:01.933Z,7.97
2018-01-28T05:44:29.444Z,7.67
2018-01-28T05:46:56.993Z,7.70
2018-01-28T05:49:24.608Z,7.73
2018-01-28T05:51:52.144Z,9.07
2018-01-28T05:54:19.757Z,8.10
2018-01-28T05:56:47.288Z,7.60
2018-01-28T05:59:14.867Z,7.33
2018-01-28T06:01:42.601Z,7.73
2018-01-28T06:04:10.281Z,7.37
2018-01-28T06:06:38.178Z,8.13
2018-01-28T06:09:05.729Z,8.20
2018-01-28T06:11:33.278Z,8.07
2018-01-28T06:14:00.793Z,7.87
2018-01-28T06:16:28.319Z,7.37
2018-01-28T06:18:55.843Z,7.90
2018-01-28T06:21:23.416Z,6.93
2018-01-28T06:23:50.932Z,7.27
2018-01-28T06:26:18.532Z,7.20
2018-01-28T06:28:46.054Z,7.03
2018-01-28T06:31:13.636Z,6.83
2018-01-28T06:33:41.204Z,6.97
2018-01-28T06:36:08.773Z,6.63
2018-01-28T06:38:36.293Z,6.90
2018-01-28T06:41:03.809Z,6.27
2018-01-28T06:43:31.334Z,6.13
2018-01-28T06:45:58.857Z,6.40
2018-01-28T06:48:26.385Z,6.43
2018-01-28T06:50:53.902Z,5.50
2018-01-28T06:53:21.478Z,6.23
2018-01-28T06:55:48.994Z,5.33
2018-01-28T06:58:16.583Z,5.37
2018-01-28T07:00:44.130Z,5.87
2018-01-28T07:03:11.654Z,4.83
2018-01-28T07:05:39.276Z,5.07
2018-01-28T07:08:06.837Z,4.77
2018-01-28T07:10:34.394Z,5.67
2018-01-28T07:13:02.604Z,4.60
2018-01-28T07:15:30.234Z,4.60
2018-01-28T07:17:57.746Z,5.07
2018-01-28T07:20:25.270Z,5.43
2018-01-28T07:22:52.796Z,4.90
2018-01-28T07:25:20.312Z,4.33
2018-01-28T07:27:47.922Z,4.37
2018-01-28T07:30:15.423Z,4.40
2018-01-28T07:32:43.015Z,4.30
2018-01-28T07:35:10.538Z,4.30
2018-01-28T07:37:38.053Z,4.57
2018-01-28T07:40:05.553Z,4.63
2018-01-28T07:42:33.071Z,4.87
2018-01-28T07:45:00.598Z,4.40
2018-01-28T07:47:28.125Z,4.13
2018-01-28T07:49:55.652Z,4.00
2018-01-28T07:52:23.213Z,4.37
2018-01-28T07:54:50.723Z,4.53
2018-01-28T07:57:18.237Z,4.23
2018-01-28T07:59:45.767Z,4.77
2018-01-28T08:02:13.289Z,4.00
2018-01-28T08:04:40.846Z,3.80
2018-01-28T08:07:08.363Z,4.30
2018-01-28T08:09:36.263Z,3.83
2018-01-28T08:12:16.637Z,3.83
2018-01-28T08:14:44.164Z,4.00
2018-01-28T08:17:11.682Z,3.80
2018-01-28T08:19:39.215Z,4.03
2018-01-28T08:22:06.729Z,4.07
2018-01-28T08:24:34.234Z,4.50
2018-01-28T08:27:06.296Z,3.97
2018-01-28T08:29:34.813Z,4.23
2018-01-28T08:32:02.321Z,4.23
2018-01-28T08:34:29.836Z,4.50
2018-01-28T08:36:57.388Z,4.20
2018-01-28T08:39:24.941Z,4.60
2018-01-28T08:41:52.456Z,4.00
2018-01-28T08:44:19.972Z,4.20
2018-01-28T08:46:47.490Z,4.10
2018-01-28T08:49:15.006Z,4.60
2018-01-28T08:51:42.525Z,4.43
2018-01-28T08:54:10.043Z,4.80
2018-01-28T08:56:37.560Z,4.47
2018-01-28T08:59:05.080Z,5.30
2018-01-28T09:01:32.598Z,4.73
2018-01-28T09:04:00.176Z,4.90
2018-01-28T09:06:27.728Z,5.20
2018-01-28T09:08:55.242Z,4.73
2018-01-28T09:11:22.760Z,4.90
2018-01-28T09:13:50.271Z,4.70
2018-01-28T09:16:17.797Z,5.33
2018-01-28T09:18:45.440Z,5.70
2018-01-28T09:21:13.018Z,5.20
2018-01-28T09:23:40.661Z,6.00
2018-01-28T09:26:08.174Z,5.60
2018-01-28T09:28:37.727Z,5.70
2018-01-28T09:31:05.245Z,5.60
2018-01-28T09:33:32.843Z,5.23
2018-01-28T09:36:00.386Z,6.73
2018-01-28T09:38:27.970Z,5.80
2018-01-28T09:40:55.498Z,5.83
2018-01-28T09:43:23.068Z,5.00
2018-01-28T09:45:50.597Z,6.13
2018-01-28T09:48:18.141Z,5.20
2018-01-28T09:50:45.666Z,4.93
2018-01-28T09:53:13.441Z,5.20
2018-01-28T09:55:40.953Z,5.80
2018-01-28T09:58:08.549Z,4.93
2018-01-28T10:00:36.069Z,5.40
2018-01-28T10:03:03.600Z,5.00
2018-01-28T10:05:31.130Z,5.00
2018-01-28T10:07:58.687Z,5.17
2018-01-28T10:10:26.218Z,5.17
2018-01-28T10:12:53.779Z,5.10
2018-01-28T10:15:21.374Z,4.70
2018-01-28T10:17:48.894Z,4.93
2018-01-28T10:20:16.419Z,5.70
2018-01-28T10:22:43.954Z,5.93
2018-01-28T10:25:11.485Z,5.37
2018-01-28T10:27:39.021Z,5.30
2018-01-28T10:30:06.565Z,5.33
2018-01-28T10:32:34.094Z,4.87
2018-01-28T10:35:01.609Z,5.17
2018-01-28T10:37:29.141Z,4.40
2018-01-28T10:39:56.660Z,4.70
2018-01-28T10:42:24.187Z,5.07
2018-01-28T10:44:51.717Z,5.03
2018-01-28T10:47:19.243Z,4.93
2018-01-28T10:49:46.807Z,5.17
2018-01-28T10:52:14.326Z,5.10
2018-01-28T10:54:41.877Z,5.93
2018-01-28T10:57:09.403Z,5.47
2018-01-28T10:59:36.916Z,5.13
2018-01-28T11:02:04.446Z,5.77
2018-01-28T11:04:32.013Z,5.67
2018-01-28T11:06:59.538Z,5.63
2018-01-28T11:09:27.176Z,5.47
2018-01-28T11:11:54.701Z,5.73
2018-01-28T11:14:22.227Z,5.27
2018-01-28T11:16:49.760Z,5.30
2018-01-28T11:19:17.272Z,5.10
2018-01-28T11:21:44.789Z,4.83
2018-01-28T11:24:12.305Z,5.13
2018-01-28T11:26:39.832Z,5.60
2018-01-28T11:29:07.348Z,4.90
2018-01-28T11:31:34.883Z,4.83
2018-01-28T11:34:02.401Z,4.20
2018-01-28T11:36:30.031Z,4.23
2018-01-28T11:38:57.556Z,5.00
2018-01-28T11:41:25.148Z,4.97
2018-01-28T11:43:52.712Z,4.43
2018-01-28T11:46:20.229Z,4.90
2018-01-28T11:48:47.831Z,4.57
2018-01-28T11:51:15.404Z,4.70
2018-01-28T11:53:42.904Z,4.50
2018-01-28T11:56:10.439Z,4.73
2018-01-28T11:58:37.949Z,5.23
2018-01-28T12:01:05.529Z,5.03
2018-01-28T12:03:33.055Z,5.50
2018-01-28T12:06:00.590Z,5.37
2018-01-28T12:08:28.209Z,5.87
2018-01-28T12:10:55.725Z,5.60
2018-01-28T12:13:23.249Z,5.53
2018-01-28T12:15:50.886Z,5.20
2018-01-28T12:18:18.401Z,5.87
2018-01-28T12:20:45.928Z,5.97
2018-01-28T12:23:13.444Z,5.80
2018-01-28T12:25:40.973Z,5.77
2018-01-28T12:28:08.579Z,5.53
2018-01-28T12:30:36.098Z,5.47
2018-01-28T12:33:03.631Z,5.73
2018-01-28T12:35:31.163Z,6.40
2018-01-28T12:37:58.676Z,6.23
2018-01-28T12:40:26.201Z,5.80
2018-01-28T12:42:53.745Z,6.07
2018-01-28T12:45:21.257Z,5.20
2018-01-28T12:47:48.817Z,5.53
2018-01-28T12:50:16.345Z,5.53
2018-01-28T12:52:43.865Z,4.97
2018-01-28T12:55:11.375Z,4.77
2018-01-28T12:57:38.891Z,4.97
2018-01-28T13:00:06.406Z,4.97
2018-01-28T13:02:33.956Z,4.83
2018-01-28T13:05:01.470Z,4.50
2018-01-28T13:07:28.984Z,4.80
2018-01-28T13:09:56.525Z,5.13
2018-01-28T13:12:24.054Z,4.53
2018-01-28T13:14:51.585Z,4.63
2018-01-28T13:17:19.162Z,4.43
2018-01-28T13:19:46.681Z,4.20
2018-01-28T13:22:14.220Z,4.57
2018-01-28T13:24:41.752Z,4.67
2018-01-28T13:27:09.266Z,4.97
2018-01-28T13:29:36.780Z,4.27
2018-01-28T13:32:04.341Z,4.80
2018-01-28T13:34:31.869Z,4.43
2018-01-28T13:36:59.392Z,4.20
2018-01-28T13:39:26.908Z,5.27
2018-01-28T13:41:54.416Z,4.57
2018-01-28T13:44:21.959Z,4.77
2018-01-28T13:46:49.481Z,4.60
2018-01-28T13:49:17.001Z,4.00
2018-01-28T13:51:44.602Z,4.83
2018-01-28T13:54:12.130Z,4.80
2018-01-28T13:56:39.690Z,4.50
2018-01-28T13:59:07.218Z,4.43
2018-01-28T14:01:34.873Z,4.63
2018-01-28T14:04:02.809Z,4.60
2018-01-28T14:06:30.348Z,4.57
2018-01-28T14:08:57.995Z,3.90
2018-01-28T14:11:25.526Z,4.90
2018-01-28T14:13:53.046Z,4.20
2018-01-28T14:16:20.608Z,8.10
2018-01-28T14:18:48.136Z,4.60
2018-01-28T14:21:15.688Z,4.73
2018-01-28T14:23:43.225Z,4.57
2018-01-28T14:26:10.759Z,4.60
2018-01-28T14:28:38.278Z,4.80
2018-01-28T14:31:06.335Z,4.97
2018-01-28T14:33:33.860Z,5.33
2018-01-28T14:36:01.405Z,5.07
2018-01-28T14:38:28.935Z,4.57
2018-01-28T14:40:56.455Z,5.00
2018-01-28T14:43:24.012Z,4.90
2018-01-28T14:45:51.548Z,4.37
2018-01-28T14:48:19.100Z,5.37
2018-01-28T14:50:46.621Z,4.93
2018-01-28T14:53:14.144Z,4.97
2018-01-28T14:55:41.679Z,5.30
2018-01-28T14:58:09.207Z,5.80
2018-01-28T15:00:36.728Z,5.00
2018-01-28T15:03:04.259Z,5.80
2018-01-28T15:05:31.785Z,5.53
2018-01-28T15:07:59.302Z,5.43
2018-01-28T15:10:26.831Z,4.40
2018-01-28T15:12:54.353Z,5.47
2018-01-28T15:15:21.951Z,6.03
2018-01-28T15:17:49.481Z,5.30
2018-01-28T15:20:16.999Z,5.80
2018-01-28T15:22:44.527Z,5.60
2018-01-28T15:25:12.059Z,5.90
2018-01-28T15:27:39.605Z,6.97
2018-01-28T15:30:07.146Z,6.10
2018-01-28T15:32:34.664Z,5.73
2018-01-28T15:35:02.194Z,5.80
2018-01-28T15:37:29.709Z,5.93
2018-01-28T15:39:57.257Z,6.07
2018-01-28T15:42:24.785Z,6.00
2018-01-28T15:44:52.369Z,5.90
2018-01-28T15:47:19.918Z,5.80
2018-01-28T15:49:47.448Z,6.10
2018-01-28T15:52:14.964Z,5.70
2018-01-28T15:54:42.481Z,6.20
2018-01-28T15:57:10.758Z,6.63
2018-01-28T15:59:38.297Z,6.47
2018-01-28T16:02:05.898Z,6.97
2018-01-28T16:04:33.423Z,6.00
2018-01-28T16:07:00.950Z,6.43
2018-01-28T16:09:28.486Z,6.47
2018-01-28T16:11:55.996Z,7.00
2018-01-28T16:14:23.516Z,6.60
2018-01-28T16:16:51.049Z,7.10
2018-01-28T16:19:18.567Z,7.47
2018-01-28T16:21:46.080Z,7.03
2018-01-28T16:24:13.653Z,6.70
2018-01-28T16:26:41.189Z,7.33
2018-01-28T16:29:08.707Z,7.73
2018-01-28T16:31:36.233Z,8.17
2018-01-28T16:34:03.753Z,7.93
2018-01-28T16:36:31.329Z,7.70
2018-01-28T16:38:58.865Z,8.07
2018-01-28T16:41:26.403Z,8.13
2018-01-28T16:43:53.926Z,8.37
2018-01-28T16:46:21.463Z,9.10
2018-01-28T16:48:48.993Z,9.40
2018-01-28T16:51:16.574Z,8.60
2018-01-28T16:53:44.146Z,9.03
2018-01-28T16:56:11.674Z,8.87
2018-01-28T16:58:39.253Z,9.57
2018-01-28T17:01:06.770Z,9.50
2018-01-28T17:03:34.294Z,8.50
2018-01-28T17:06:01.806Z,9.47
2018-01-28T17:08:29.328Z,9.53
2018-01-28T17:10:56.859Z,9.20
2018-01-28T17:13:24.386Z,9.27
2018-01-28T17:15:51.909Z,10.40
2018-01-28T17:18:19.446Z,9.67
2018-01-28T17:20:46.965Z,10.73
2018-01-28T17:23:14.545Z,10.13
2018-01-28T17:25:42.083Z,10.20
2018-01-28T17:28:09.601Z,10.40
2018-01-28T17:30:37.116Z,10.50
2018-01-28T17:33:04.637Z,9.53
2018-01-28T17:35:37.593Z,9.97
2018-01-28T17:38:05.301Z,9.87
2018-01-28T17:40:32.826Z,10.13
2018-01-28T17:43:00.364Z,10.10
2018-01-28T17:45:27.960Z,10.10
2018-01-28T17:47:55.482Z,11.07
2018-01-28T17:50:23.005Z,11.07
2018-01-28T17:52:50.532Z,11.37
2018-01-28T17:55:18.084Z,11.23
2018-01-28T17:57:45.616Z,10.93
2018-01-28T18:00:13.134Z,10.70
2018-01-28T18:02:40.668Z,12.20
2018-01-28T18:05:08.199Z,11.37
2018-01-28T18:07:35.720Z,11.53
2018-01-28T18:10:03.242Z,11.60
2018-01-28T18:12:30.763Z,10.97
2018-01-28T18:14:58.289Z,11.63
2018-01-28T18:17:25.902Z,11.33
2018-01-28T18:19:53.456Z,11.33
2018-01-28T18:22:20.996Z,11.20
2018-01-28T18:24:48.584Z,14.87
2018-01-28T18:27:16.112Z,11.43
2018-01-28T18:29:43.633Z,11.50
2018-01-28T18:32:11.257Z,11.57
2018-01-28T18:34:38.772Z,11.43
2018-01-28T18:37:06.293Z,10.93
2018-01-28T18:39:33.814Z,11.57
2018-01-28T18:42:01.398Z,10.90
2018-01-28T18:44:28.931Z,11.83
2018-01-28T18:46:56.468Z,12.13
2018-01-28T18:49:24.082Z,11.40
2018-01-28T18:51:51.754Z,13.60
2018-01-28T18:54:19.273Z,13.13
2018-01-28T18:56:46.856Z,15.20
2018-01-28T18:59:14.388Z,14.23
2018-01-28T19:01:41.917Z,13.70
2018-01-28T19:04:09.445Z,13.90
2018-01-28T19:06:36.968Z,13.60
2018-01-28T19:09:04.529Z,15.07
2018-01-28T19:11:32.112Z,16.13
2018-01-28T19:13:59.672Z,16.33
2018-01-28T19:16:27.208Z,15.43
2018-01-28T19:18:54.726Z,16.30
2018-01-28T19:21:22.245Z,19.97
2018-01-28T19:23:49.786Z,16.40
2018-01-28T19:26:17.296Z,18.00
2018-01-28T19:28:44.819Z,16.83
2018-01-28T19:31:12.362Z,17.43
2018-01-28T19:33:39.882Z,17.30
2018-01-28T19:36:07.411Z,16.83
2018-01-28T19:38:34.936Z,18.13
2018-01-28T19:41:02.466Z,22.17
2018-01-28T19:43:30.021Z,17.67
2018-01-28T19:45:57.551Z,16.93
2018-01-28T19:48:25.107Z,18.23
2018-01-28T19:50:52.628Z,17.13
2018-01-28T19:53:20.172Z,16.43
2018-01-28T19:55:47.717Z,17.20
2018-01-28T19:58:15.242Z,16.33
2018-01-28T20:00:42.769Z,15.03
2018-01-28T20:03:10.283Z,15.90
2018-01-28T20:05:37.819Z,14.70
2018-01-28T20:08:05.341Z,13.20
2018-01-28T20:10:32.874Z,13.53
2018-01-28T20:13:00.391Z,13.30
2018-01-28T20:15:28.011Z,12.37
2018-01-28T20:17:55.550Z,11.50
2018-01-28T20:20:23.173Z,11.80
2018-01-28T20:22:50.701Z,10.27
2018-01-28T20:25:18.230Z,9.83
2018-01-28T20:27:45.752Z,9.17
2018-01-28T20:30:13.281Z,9.37
2018-01-28T20:32:40.800Z,9.50
2018-01-28T20:35:08.323Z,9.47
2018-01-28T20:37:35.836Z,8.83
2018-01-28T20:40:03.405Z,9.27
2018-01-28T20:42:30.959Z,8.17
2018-01-28T20:44:58.546Z,8.23
2018-01-28T20:47:26.137Z,8.60
2018-01-28T20:49:53.813Z,8.57
2018-01-28T20:52:21.401Z,8.57
2018-01-28T20:57:21.606Z,8.27
2018-01-28T20:59:49.121Z,8.37
2018-01-28T21:02:16.745Z,9.40
2018-01-28T21:04:44.317Z,8.97
2018-01-28T21:07:11.837Z,8.57
2018-01-28T21:09:39.404Z,9.20
2018-01-28T21:12:06.990Z,8.60
2018-01-28T21:14:34.553Z,8.93
2018-01-28T21:17:02.109Z,8.83
2018-01-28T21:19:29.645Z,8.77
2018-01-28T21:21:57.165Z,9.00
2018-01-28T21:24:24.682Z,9.17
2018-01-28T21:26:52.208Z,10.17
2018-01-28T21:29:19.768Z,9.57
2018-01-28T21:31:47.308Z,9.63
2018-01-28T21:34:14.821Z,9.80
2018-01-28T21:36:42.382Z,9.73
2018-01-28T21:39:09.896Z,9.67
2018-01-28T21:41:37.426Z,10.03
2018-01-28T21:44:04.956Z,10.57
2018-01-28T21:46:32.475Z,11.13
2018-01-28T21:49:00.011Z,10.20
2018-01-28T21:51:27.545Z,10.27
2018-01-28T21:53:55.061Z,9.93
2018-01-28T21:56:22.615Z,10.07
2018-01-28T21:58:50.170Z,9.77
2018-01-28T22:01:17.698Z,10.00
2018-01-28T22:03:45.228Z,9.77
2018-01-28T22:06:12.745Z,11.00
2018-01-28T22:08:40.277Z,10.27
2018-01-28T22:11:07.804Z,10.80
2018-01-28T22:13:35.326Z,9.63
2018-01-28T22:16:02.848Z,10.00
2018-01-28T22:18:30.463Z,10.27
2018-01-28T22:20:57.986Z,10.07
2018-01-28T22:23:25.514Z,9.27
2018-01-28T22:25:53.150Z,9.17
2018-01-28T22:28:20.706Z,9.60
2018-01-28T22:30:48.227Z,9.27
2018-01-28T22:33:15.736Z,8.87
2018-01-28T22:35:43.252Z,8.90
2018-01-28T22:38:10.825Z,8.80
2018-01-28T22:40:38.337Z,8.40
2018-01-28T22:43:05.892Z,8.37
2018-01-28T22:45:33.521Z,8.17
2018-01-28T22:48:01.168Z,7.73
2018-01-28T22:50:28.727Z,9.50
2018-01-28T22:52:56.390Z,8.20
2018-01-28T22:55:23.915Z,7.63
2018-01-28T22:57:51.498Z,7.63
2018-01-28T23:00:19.060Z,7.93
2018-01-28T23:02:46.576Z,8.30
2018-01-28T23:05:14.087Z,7.57
2018-01-28T23:07:41.664Z,7.10
2018-01-28T23:10:09.241Z,7.30
2018-01-28T23:12:36.757Z,7.50
2018-01-28T23:15:04.303Z,6.70
2018-01-28T23:17:31.826Z,6.73
2018-01-28T23:19:59.873Z,6.67
2018-01-28T23:22:27.397Z,6.70
2018-01-28T23:24:54.956Z,6.17
2018-01-28T23:27:22.479Z,6.43
2018-01-28T23:29:49.998Z,5.93
2018-01-28T23:32:17.511Z,5.97
2018-01-28T23:34:45.128Z,5.70
2018-01-28T23:37:12.653Z,5.57
2018-01-28T23:39:40.173Z,5.70
2018-01-28T23:42:07.685Z,5.20
2018-01-28T23:44:35.203Z,5.10
2018-01-28T23:47:02.724Z,5.03
2018-01-28T23:49:30.255Z,4.30
2018-01-28T23:51:57.857Z,4.27
2018-01-28T23:54:25.413Z,4.13
2018-01-28T23:56:52.929Z,4.13
2018-01-28T23:59:20.458Z,3.70
